Latest Weather Observations for Cape Byron

IDN60801

Issued at 7:35 pm EST Tuesday 30 September 2014 (issued every 30 minutes, with the page automatically refreshed every 10 minutes)

About weather observations | Map of weather stations | Latest weather observations for NSW | Other Formats
Station Details ID: 058216 Name: CAPE BYRON AWS Lat: -28.64 Lon: 153.64 Height: 95.0 m
Data from the previous 72 hours. | See also: Recent months at Cape Byron
Date/Time
EST
Temp
°C
App
Temp
°C
Dew
Point
Rel
Hum
%
Delta-T
°C
Wind Press
QNH
hPa
Press
MSL
hPa
Rain
since 9 am
mm
Dir
 
Spd
km/h
Gust
km/h
Spd
kts
Gust
kts
30/07:30pm 19.9 16.2 16.9 83 1.8 N 32 46 17 25 1017.4 1017.1 0.0
30/07:00pm 19.9 16.6 17.1 84 1.7 N 30 43 16 23 1017.3 1017.0 0.0
30/06:30pm 19.9 16.2 16.9 83 1.8 N 32 46 17 25 1017.1 1016.8 0.0
30/06:00pm 19.9 16.5 16.7 82 1.9 N 30 41 16 22 1016.8 1016.5 0.0
30/05:30pm 20.2 16.4 16.6 80 2.2 N 32 44 17 24 1016.7 1016.4 0.0
30/05:00pm 20.5 16.3 16.3 77 2.5 N 33 44 18 24 1016.6 1016.3 0.0
30/04:30pm 20.9 16.7 16.3 75 2.8 N 33 46 18 25 1016.6 1016.3 0.0
30/04:00pm 21.1 16.5 16.1 73 3.0 NNE 35 50 19 27 1016.6 1016.3 0.0
30/03:30pm 21.1 15.9 15.6 71 3.3 NNE 37 52 20 28 1016.4 1016.1 0.0
30/03:00pm 21.5 16.8 15.8 70 3.4 NNE 35 52 19 28 1016.6 1016.3 0.0
30/02:30pm 21.7 17.1 15.1 66 3.9 NNE 33 46 18 25 1016.5 1016.2 0.0
30/02:00pm 21.9 17.1 14.5 63 4.4 NNE 33 54 18 29 1016.8 1016.5 0.0
30/01:34pm 22.0 16.9 14.9 64 4.2 NNE 35 57 19 31 1017.0 1016.7 0.0
30/01:30pm 21.9 17.1 14.5 63 4.4 NNE 33 50 18 27 1017.0 1016.7 0.0
30/01:00pm 22.2 16.4 12.7 55 5.4 NNE 35 54 19 29 1017.4 1017.1 0.0
30/12:33pm 22.2 16.7 12.5 54 5.5 NNE 33 52 18 28 1017.7 1017.4 0.0
30/12:30pm 22.1 16.8 13.2 57 5.1 NNE 33 48 18 26 1017.8 1017.5 0.0
30/12:00pm 22.0 16.8 13.4 58 5.0 NNE 33 50 18 27 1018.1 1017.8 0.0
30/11:30am 21.9 17.5 14.0 61 4.6 NNE 30 52 16 28 1018.5 1018.2 0.0
30/11:00am 21.7 16.9 13.9 61 4.5 NNE 32 50 17 27 1018.9 1018.6 0.0
30/10:52am 21.7 17.0 13.3 59 4.8 NNE 30 50 16 27 1018.9 1018.6 0.0
30/10:30am 21.6 17.7 14.3 63 4.3 NNE 28 43 15 23 1019.2 1018.9 0.0
30/10:00am 21.6 17.8 14.7 65 4.1 N 28 41 15 22 1019.7 1019.4 0.0
30/09:30am 21.2 17.1 14.8 67 3.8 N 30 44 16 24 1019.9 1019.6 0.0
30/09:00am 21.1 17.9 15.4 70 3.4 N 26 35 14 19 1019.9 1019.6 0.0
30/08:30am 20.5 17.7 14.4 68 3.6 N 22 33 12 18 1019.9 1019.6 0.0
30/08:00am 19.8 16.7 14.4 71 3.1 N 24 33 13 18 1019.8 1019.5 0.0
30/07:30am 19.4 16.1 14.0 71 3.1 N 24 35 13 19 1019.8 1019.5 0.0
30/07:00am 19.0 15.3 13.8 72 3.0 N 26 35 14 19 1019.7 1019.4 0.0
30/06:30am 18.7 15.0 13.8 73 2.8 N 26 37 14 20 1019.4 1019.1 0.0
30/06:00am 18.4 14.1 13.3 72 2.9 N 28 39 15 21 1019.2 1018.9 0.0
30/05:30am 18.3 14.5 13.6 74 2.7 N 26 35 14 19 1019.0 1018.7 0.0
30/05:00am 18.3 14.0 13.2 72 2.9 N 28 39 15 21 1018.6 1018.3 0.0
30/04:30am 18.4 14.4 13.0 71 3.0 N 26 33 14 18 1018.5 1018.2 0.0
30/04:00am 18.5 15.1 13.6 73 2.8 N 24 32 13 17 1018.2 1017.9 0.0
30/03:30am 18.5 15.0 13.4 72 2.9 N 24 33 13 18 1017.9 1017.6 0.0
30/03:00am 18.6 14.8 13.7 73 2.8 N 26 35 14 19 1017.9 1017.6 0.0
30/02:30am 18.7 15.3 13.8 73 2.8 N 24 35 13 19 1018.1 1017.8 0.0
30/02:00am 18.7 15.9 14.2 75 2.6 N 22 35 12 19 1018.3 1018.0 0.0
30/01:30am 18.6 15.5 14.5 77 2.4 N 24 35 13 19 1018.3 1018.0 0.0
30/01:00am 18.7 15.6 14.4 76 2.5 N 24 33 13 18 1018.6 1018.3 0.0
30/12:30am 18.8 15.6 14.3 75 2.6 N 24 33 13 18 1018.7 1018.4 0.0
30/12:00am 18.8 15.7 14.5 76 2.5 N 24 33 13 18 1018.9 1018.6 0.0
 
Date/Time
EST
Temp
°C
App
Temp
°C
Dew
Point
Rel
Hum
%
Delta-T
°C
Wind Press
QNH
hPa
Press
MSL
hPa
Rain
since 9 am
mm
Dir
 
Spd
km/h
Gust
km/h
Spd
kts
Gust
kts
29/11:30pm 18.8 15.2 14.1 74 2.7 N 26 37 14 20 1019.0 1018.7 0.0
29/11:00pm 18.8 15.6 14.3 75 2.6 N 24 39 13 21 1019.1 1018.8 0.0
29/10:30pm 18.9 15.7 14.2 74 2.7 N 24 35 13 19 1019.3 1019.0 0.0
29/10:00pm 19.0 15.4 14.1 73 2.8 N 26 37 14 20 1019.4 1019.1 0.0
29/09:30pm 19.1 16.5 14.8 76 2.5 N 22 32 12 17 1019.3 1019.0 0.0
29/09:00pm 19.4 16.1 15.1 76 2.5 N 26 35 14 19 1019.3 1019.0 0.0
29/08:30pm 19.6 16.3 15.0 75 2.7 N 26 37 14 20 1019.1 1018.8 0.0
29/08:00pm 19.6 15.9 15.0 75 2.7 N 28 39 15 21 1019.0 1018.7 0.0
29/07:30pm 19.7 16.2 15.4 76 2.5 N 28 39 15 21 1018.7 1018.4 0.0
29/07:00pm 19.7 16.3 15.8 78 2.3 N 28 37 15 20 1018.4 1018.1 0.0
29/06:30pm 19.8 15.9 15.4 76 2.6 N 30 43 16 23 1018.1 1017.8 0.0
29/06:00pm 19.9 16.3 15.3 75 2.7 N 28 39 15 21 1017.8 1017.5 0.0
29/05:30pm 20.2 15.8 15.2 73 3.0 N 32 43 17 23 1017.5 1017.2 0.0
29/05:00pm 20.6 16.2 15.2 71 3.2 N 32 41 17 22 1017.3 1017.0 0.0
29/04:30pm 20.9 16.8 14.8 68 3.6 N 30 41 16 22 1017.5 1017.2 0.0
29/04:00pm 21.1 17.3 14.7 67 3.8 N 28 39 15 21 1017.3 1017.0 0.0
29/03:30pm 21.2 17.8 14.8 67 3.8 N 26 39 14 21 1017.3 1017.0 0.0
29/03:00pm 21.3 17.0 14.5 65 4.0 NNE 30 44 16 24 1017.2 1016.9 0.0
29/02:30pm 21.3 17.8 14.5 65 4.0 NNE 26 39 14 21 1017.3 1017.0 0.0
29/02:00pm 21.5 17.6 14.4 64 4.2 N 28 39 15 21 1017.6 1017.3 0.0
29/01:30pm 21.7 18.2 14.4 63 4.3 NNE 26 43 14 23 1017.9 1017.6 0.0
29/01:00pm 21.6 17.9 13.8 61 4.5 NNE 26 41 14 22 1018.2 1017.9 0.0
29/12:30pm 21.5 17.3 13.4 60 4.7 NNE 28 39 15 21 1018.4 1018.1 0.0
29/12:00pm 21.3 17.4 13.2 60 4.6 NNE 26 41 14 22 1018.8 1018.5 0.0
29/11:30am 21.4 17.5 13.3 60 4.7 NNE 26 39 14 21 1019.2 1018.9 0.0
29/11:00am 21.2 17.2 12.9 59 4.7 N 26 39 14 21 1019.7 1019.4 0.0
29/10:30am 21.3 16.9 13.0 59 4.8 N 28 37 15 20 1020.0 1019.7 0.0
29/10:00am 21.1 17.2 13.3 61 4.5 N 26 33 14 18 1020.3 1020.0 0.0
29/09:30am 20.7 16.9 12.4 59 4.7 N 24 33 13 18 1020.6 1020.3 0.0
29/09:00am 20.2 18.3 12.9 63 4.1 N 15 26 8 14 1021.3 1021.1 0.2
29/08:30am 19.8 19.1 13.3 66 3.7 N 9 15 5 8 1021.6 1021.4 0.2
29/08:00am 18.9 17.7 12.9 68 3.4 N 11 17 6 9 1021.5 1021.3 0.2
29/07:30am 18.1 16.7 12.3 69 3.2 N 11 15 6 8 1021.3 1021.1 0.2
29/07:00am 17.5 16.0 12.0 70 3.0 N 11 15 6 8 1021.4 1021.2 0.2
29/06:30am 17.2 15.4 12.1 72 2.8 N 13 15 7 8 1021.2 1021.0 0.2
29/06:00am 15.2 14.4 11.6 79 1.9 NNW 7 11 4 6 1021.0 1020.8 0.2
29/05:30am 15.2 14.1 11.8 80 1.8 NNW 9 11 5 6 1020.6 1020.3 0.2
29/05:00am 15.1 13.9 11.7 80 1.8 NNW 9 11 5 6 1020.4 1020.1 0.2
29/04:30am 14.8 13.7 11.8 82 1.6 NNW 9 11 5 6 1020.0 1019.7 0.2
29/04:00am 14.5 13.4 11.8 84 1.5 NNW 9 13 5 7 1019.6 1019.3 0.2
29/03:30am 14.1 12.8 11.1 82 1.6 NW 9 13 5 7 1019.6 1019.3 0.2
29/03:00am 15.0 13.9 11.8 81 1.7 NNW 9 15 5 8 1019.6 1019.3 0.2
29/02:30am 14.9 13.8 11.9 82 1.6 NNW 9 13 5 7 1019.7 1019.4 0.2
29/02:00am 15.0 13.5 12.0 82 1.6 NNW 11 15 6 8 1020.2 1019.9 0.2
29/01:30am 15.2 13.2 11.6 79 1.9 NNW 13 15 7 8 1020.5 1020.2 0.2
29/01:00am 15.4 13.8 11.4 77 2.1 NNW 11 13 6 7 1020.9 1020.7 0.2
29/12:30am 15.6 13.9 11.2 75 2.4 NW 11 13 6 7 1021.3 1021.1 0.2
29/12:00am 15.8 14.5 11.2 74 2.5 NW 9 13 5 7 1021.7 1021.5 0.2
 
Date/Time
EST
Temp
°C
App
Temp
°C
Dew
Point
Rel
Hum
%
Delta-T
°C
Wind Press
QNH
hPa
Press
MSL
hPa
Rain
since 9 am
mm
Dir
 
Spd
km/h
Gust
km/h
Spd
kts
Gust
kts
28/11:30pm 16.5 15.2 11.4 72 2.8 NNW 9 11 5 6 1021.8 1021.6 0.2
28/11:00pm 17.1 15.8 11.4 69 3.1 NNW 9 15 5 8 1021.8 1021.6 0.2
28/10:30pm 17.9 15.0 11.0 64 3.7 NE 17 20 9 11 1021.8 1021.6 0.2
28/10:00pm 17.4 14.4 10.8 65 3.5 ENE 17 20 9 11 1021.8 1021.6 0.2
28/09:30pm 16.9 14.7 10.7 67 3.3 ENE 13 19 7 10 1021.7 1021.5 0.2
28/09:00pm 17.1 14.3 11.2 68 3.2 ENE 17 20 9 11 1021.9 1021.7 0.2
28/08:30pm 17.3 15.6 11.3 68 3.3 ESE 11 17 6 9 1021.8 1021.6 0.2
28/08:00pm 17.2 15.1 11.2 68 3.2 E 13 20 7 11 1021.6 1021.4 0.2
28/07:30pm 17.6 16.3 11.4 67 3.4 E 9 17 5 9 1021.4 1021.2 0.2
28/07:00pm 17.6 15.2 11.4 67 3.4 ENE 15 24 8 13 1021.0 1020.8 0.2
28/06:30pm 17.7 14.6 11.5 67 3.4 E 19 24 10 13 1020.8 1020.6 0.2
28/06:00pm 18.1 15.0 11.7 66 3.5 E 19 24 10 13 1020.7 1020.4 0.2
28/05:30pm 18.7 15.4 11.5 63 4.0 ESE 20 28 11 15 1020.5 1020.2 0.2
28/05:00pm 19.1 14.6 11.4 61 4.2 E 26 30 14 16 1020.3 1020.0 0.2
28/04:30pm 19.5 14.7 11.8 61 4.3 ESE 28 35 15 19 1020.2 1019.9 0.2
28/04:00pm 19.9 15.6 12.2 61 4.3 SE 26 35 14 19 1020.1 1019.8 0.2
28/03:30pm 19.7 16.3 12.5 63 4.1 SSE 22 32 12 17 1020.1 1019.8 0.2
28/03:00pm 19.8 16.2 13.0 65 3.9 SSE 24 32 13 17 1020.2 1019.9 0.2
28/02:30pm 19.7 16.0 12.7 64 4.0 SE 24 32 13 17 1020.4 1020.1 0.2
28/02:00pm 19.7 15.7 12.9 65 3.8 SSE 26 35 14 19 1020.5 1020.2 0.2
28/01:30pm 19.5 15.7 12.5 64 3.9 SSE 24 33 13 18 1020.8 1020.6 0.2
28/01:00pm 19.6 15.3 13.1 66 3.7 SSE 28 35 15 19 1021.0 1020.8 0.2
28/12:30pm 19.4 15.8 12.9 66 3.7 SSE 24 32 13 17 1021.3 1021.1 0.2
28/12:00pm 19.4 15.4 13.1 67 3.6 S 26 32 14 17 1021.7 1021.5 0.2
28/11:30am 19.2 15.3 13.2 68 3.4 S 26 32 14 17 1021.9 1021.7 0.2
28/11:00am 18.9 14.6 13.1 69 3.3 S 28 32 15 17 1022.3 1022.1 0.2
28/10:30am 18.9 14.1 11.7 63 4.0 S 28 33 15 18 1022.6 1022.4 0.2
28/10:00am 18.7 13.1 11.5 63 3.9 S 32 35 17 19 1022.7 1022.5 0.2
28/09:30am 18.6 15.6 12.1 66 3.6 S 19 30 10 16 1022.8 1022.6 0.0
28/09:00am 18.2 17.2 14.5 79 2.1 SSW 13 19 7 10 1022.9 1022.7 3.0
28/08:30am 17.2 15.8 13.3 78 2.2 SSW 13 19 7 10 1022.8 1022.6 3.0
28/08:00am 16.4 15.0 13.3 82 1.7 SW 13 17 7 9 1022.7 1022.5 3.0
28/07:30am 15.7 13.9 13.4 86 1.3 SW 15 20 8 11 1022.4 1022.2 3.0
28/07:00am 14.7 11.9 12.7 88 1.1 SW 19 22 10 12 1022.3 1022.1 3.0
28/06:30am 14.1 11.1 12.7 91 0.8 WSW 20 24 11 13 1022.0 1021.8 3.0
28/06:00am 14.1 11.1 12.7 91 0.8 WSW 20 22 11 12 1021.5 1021.3 3.0
28/05:30am 14.3 11.4 12.9 91 0.8 WSW 20 24 11 13 1021.6 1021.4 3.0
28/05:00am 14.3 12.0 13.0 92 0.7 WSW 17 20 9 11 1021.7 1021.5 3.0
28/04:30am 14.6 12.3 13.1 91 0.8 SSW 17 26 9 14 1021.3 1021.1 3.0
28/04:00am 14.3 10.2 12.7 90 0.9 SW 26 30 14 16 1020.9 1020.7 2.8
28/03:30am 14.4 11.2 13.0 91 0.8 SW 22 28 12 15 1020.8 1020.6 2.8
28/03:00am 14.5 11.6 12.9 90 0.9 WSW 20 26 11 14 1020.9 1020.7 2.6
28/02:30am 14.5 11.2 12.7 89 1.0 WSW 22 28 12 15 1020.9 1020.7 2.2
28/02:00am 15.1 13.7 13.3 89 1.0 WSW 13 17 7 9 1021.1 1020.9 2.2
28/01:30am 15.5 14.8 13.3 87 1.2 S 9 13 5 7 1021.3 1021.1 1.8
28/01:00am 15.8 13.7 13.5 86 1.3 SW 17 26 9 14 1021.4 1021.2 1.8
28/12:30am 17.0 14.7 13.1 78 2.2 S 17 20 9 11 1021.5 1021.3 1.4
28/12:00am 16.3 13.6 13.0 81 1.8 SW 19 26 10 14 1021.8 1021.6 1.4
 
Date/Time
EST
Temp
°C
App
Temp
°C
Dew
Point
Rel
Hum
%
Delta-T
°C
Wind Press
QNH
hPa
Press
MSL
hPa
Rain
since 9 am
mm
Dir
 
Spd
km/h
Gust
km/h
Spd
kts
Gust
kts
27/11:30pm 16.1 13.4 13.0 82 1.7 SW 19 24 10 13 1021.7 1021.5 1.4
27/11:00pm 17.5 14.6 12.2 71 2.9 SW 19 24 10 13 1021.6 1021.4 1.0
27/10:30pm 18.7 15.8 12.9 69 3.3 SSE 20 30 11 16 1021.3 1021.1 1.0
27/10:00pm 18.3 15.6 13.6 74 2.7 SE 20 30 11 16 1021.4 1021.2 1.0
27/09:30pm 17.7 12.7 13.4 76 2.4 SE 32 39 17 21 1021.1 1020.9 1.0
27/09:00pm 18.7 14.7 12.9 69 3.3 S 26 33 14 18 1020.9 1020.7 1.0
27/08:30pm 17.5 15.3 14.4 82 1.8 SE 19 22 10 12 1020.5 1020.2 1.0
27/08:00pm 16.6 12.1 13.7 83 1.6 E 30 39 16 21 1020.3 1020.0 1.0

Other Formats:

Comma delimited format used in spreadsheet applications
http://www.bom.gov.au/fwo/IDN60801/IDN60801.94599.axf

JavaScript Object Notation format (JSON) in row-major order
http://www.bom.gov.au/fwo/IDN60801/IDN60801.94599.json